EmailTwitter


Surface observations / United Kingdom / EGLL (03772)

Regions: Quebec | Canada | USA | Europe | France | UK | Elsewhere
Station
Display
Info & Location for EGLL (03772) | Help decoding METAR

Weather Conditions observed on 2021/03/07 at 20:50 UTC at LONDON/HEATHROW, UK (EGLL)

Temperature: 3.0 Celsius.

Dewpoint: -3.0 Celsius.

Relative Humidity: 65%

Winds: North-northwest at 4 km/h or 2 knots.

Mean Sea level Pressure: 102.50 kilopascals.

Horizontal visibility: 6.21 statute miles or 9.94 kilometers.

Coded METAR:

EGLL 072050Z AUTO 34002KT 9999 NCD 03/M03 Q1025 NOSIG=